sensor_id;sensor_type;location;lat;lon;timestamp;P1;durP1;ratioP1;P2;durP2;ratioP2
31872;SDS011;22407;42.820;23.374;2022-08-04T00:00:17;7.83;;;3.90;;
31872;SDS011;22407;42.820;23.374;2022-08-04T00:06:03;7.90;;;4.00;;
31872;SDS011;22407;42.820;23.374;2022-08-04T00:08:48;8.70;;;4.33;;
31872;SDS011;22407;42.820;23.374;2022-08-04T00:11:19;8.23;;;4.25;;
31872;SDS011;22407;42.820;23.374;2022-08-04T00:13:52;7.78;;;4.37;;
31872;SDS011;22407;42.820;23.374;2022-08-04T00:16:22;10.05;;;4.42;;
31872;SDS011;22407;42.820;23.374;2022-08-04T00:18:56;8.23;;;4.47;;
31872;SDS011;22407;42.820;23.374;2022-08-04T00:21:27;8.00;;;3.67;;
31872;SDS011;22407;42.820;23.374;2022-08-04T00:23:58;7.83;;;4.28;;
31872;SDS011;22407;42.820;23.374;2022-08-04T00:26:29;9.23;;;3.90;;
31872;SDS011;22407;42.820;23.374;2022-08-04T00:28:59;8.20;;;4.00;;
31872;SDS011;22407;42.820;23.374;2022-08-04T00:31:29;7.75;;;3.90;;
31872;SDS011;22407;42.820;23.374;2022-08-04T00:33:58;8.60;;;4.00;;
31872;SDS011;22407;42.820;23.374;2022-08-04T00:36:27;7.92;;;3.95;;
31872;SDS011;22407;42.820;23.374;2022-08-04T00:38:57;8.23;;;3.80;;
31872;SDS011;22407;42.820;23.374;2022-08-04T00:41:36;9.68;;;3.80;;
31872;SDS011;22407;42.820;23.374;2022-08-04T00:49:54;8.08;;;3.87;;
31872;SDS011;22407;42.820;23.374;2022-08-04T00:58:02;9.08;;;3.70;;
31872;SDS011;22407;42.820;23.374;2022-08-04T01:00:37;9.20;;;3.83;;
31872;SDS011;22407;42.820;23.374;2022-08-04T01:03:13;8.55;;;3.62;;
31872;SDS011;22407;42.820;23.374;2022-08-04T01:06:05;8.73;;;4.10;;
31872;SDS011;22407;42.820;23.374;2022-08-04T01:08:38;8.23;;;3.92;;
31872;SDS011;22407;42.820;23.374;2022-08-04T01:14:09;8.30;;;3.73;;
31872;SDS011;22407;42.820;23.374;2022-08-04T01:16:40;8.75;;;3.75;;
31872;SDS011;22407;42.820;23.374;2022-08-04T01:19:16;7.70;;;4.12;;
31872;SDS011;22407;42.820;23.374;2022-08-04T01:24:46;8.40;;;3.75;;
31872;SDS011;22407;42.820;23.374;2022-08-04T01:27:17;8.07;;;3.93;;
31872;SDS011;22407;42.820;23.374;2022-08-04T01:29:59;8.13;;;4.05;;
31872;SDS011;22407;42.820;23.374;2022-08-04T01:32:33;7.50;;;3.75;;
31872;SDS011;22407;42.820;23.374;2022-08-04T01:35:22;7.95;;;3.62;;
31872;SDS011;22407;42.820;23.374;2022-08-04T01:40:25;7.87;;;3.80;;
31872;SDS011;22407;42.820;23.374;2022-08-04T01:42:55;8.23;;;4.05;;
31872;SDS011;22407;42.820;23.374;2022-08-04T01:45:27;8.10;;;4.17;;
31872;SDS011;22407;42.820;23.374;2022-08-04T01:47:57;7.85;;;3.98;;
31872;SDS011;22407;42.820;23.374;2022-08-04T01:50:30;8.38;;;4.53;;
31872;SDS011;22407;42.820;23.374;2022-08-04T01:53:00;7.50;;;3.57;;
31872;SDS011;22407;42.820;23.374;2022-08-04T01:55:30;8.73;;;4.42;;
31872;SDS011;22407;42.820;23.374;2022-08-04T01:58:01;8.23;;;4.17;;
31872;SDS011;22407;42.820;23.374;2022-08-04T02:00:32;8.90;;;4.37;;
31872;SDS011;22407;42.820;23.374;2022-08-04T02:03:02;8.93;;;4.53;;
31872;SDS011;22407;42.820;23.374;2022-08-04T02:05:31;8.43;;;4.20;;
31872;SDS011;22407;42.820;23.374;2022-08-04T02:08:06;8.28;;;4.42;;
31872;SDS011;22407;42.820;23.374;2022-08-04T02:18:51;8.73;;;4.23;;
31872;SDS011;22407;42.820;23.374;2022-08-04T02:21:19;8.95;;;4.12;;
31872;SDS011;22407;42.820;23.374;2022-08-04T02:23:53;8.90;;;4.05;;
31872;SDS011;22407;42.820;23.374;2022-08-04T02:26:24;9.18;;;4.10;;
31872;SDS011;22407;42.820;23.374;2022-08-04T02:31:42;8.77;;;4.10;;
31872;SDS011;22407;42.820;23.374;2022-08-04T02:34:29;8.70;;;4.20;;
31872;SDS011;22407;42.820;23.374;2022-08-04T02:37:15;8.23;;;4.12;;
31872;SDS011;22407;42.820;23.374;2022-08-04T02:39:44;8.23;;;4.20;;
31872;SDS011;22407;42.820;23.374;2022-08-04T02:42:16;8.40;;;3.98;;
31872;SDS011;22407;42.820;23.374;2022-08-04T02:44:48;8.33;;;3.90;;
31872;SDS011;22407;42.820;23.374;2022-08-04T02:47:19;8.90;;;4.05;;
31872;SDS011;22407;42.820;23.374;2022-08-04T02:49:49;8.45;;;4.20;;
31872;SDS011;22407;42.820;23.374;2022-08-04T02:52:19;7.90;;;3.75;;
31872;SDS011;22407;42.820;23.374;2022-08-04T02:54:50;9.78;;;4.58;;
31872;SDS011;22407;42.820;23.374;2022-08-04T02:57:25;8.13;;;4.10;;
31872;SDS011;22407;42.820;23.374;2022-08-04T03:00:03;9.25;;;3.80;;
31872;SDS011;22407;42.820;23.374;2022-08-04T03:08:39;10.08;;;4.37;;
31872;SDS011;22407;42.820;23.374;2022-08-04T03:11:21;8.67;;;3.97;;
31872;SDS011;22407;42.820;23.374;2022-08-04T03:19:50;8.53;;;4.03;;
31872;SDS011;22407;42.820;23.374;2022-08-04T03:30:47;8.95;;;4.20;;
31872;SDS011;22407;42.820;23.374;2022-08-04T03:33:35;12.07;;;4.17;;
31872;SDS011;22407;42.820;23.374;2022-08-04T03:45:02;9.48;;;4.70;;
31872;SDS011;22407;42.820;23.374;2022-08-04T03:56:13;9.88;;;5.10;;
31872;SDS011;22407;42.820;23.374;2022-08-04T03:59:09;10.50;;;5.58;;
31872;SDS011;22407;42.820;23.374;2022-08-04T04:07:26;11.73;;;4.60;;
31872;SDS011;22407;42.820;23.374;2022-08-04T04:10:02;10.00;;;4.60;;
31872;SDS011;22407;42.820;23.374;2022-08-04T04:15:44;9.30;;;4.25;;
31872;SDS011;22407;42.820;23.374;2022-08-04T04:18:13;10.40;;;4.50;;
31872;SDS011;22407;42.820;23.374;2022-08-04T04:29:41;8.55;;;4.22;;
31872;SDS011;22407;42.820;23.374;2022-08-04T04:45:57;11.57;;;5.47;;
31872;SDS011;22407;42.820;23.374;2022-08-04T04:48:35;12.83;;;5.50;;
31872;SDS011;22407;42.820;23.374;2022-08-04T04:54:20;16.80;;;5.75;;
31872;SDS011;22407;42.820;23.374;2022-08-04T04:57:02;17.98;;;5.95;;
31872;SDS011;22407;42.820;23.374;2022-08-04T04:59:46;11.63;;;5.97;;
31872;SDS011;22407;42.820;23.374;2022-08-04T05:05:05;13.10;;;6.33;;
31872;SDS011;22407;42.820;23.374;2022-08-04T05:10:59;12.78;;;6.33;;
31872;SDS011;22407;42.820;23.374;2022-08-04T05:16:13;9.97;;;5.50;;
31872;SDS011;22407;42.820;23.374;2022-08-04T05:18:39;11.80;;;6.25;;
31872;SDS011;22407;42.820;23.374;2022-08-04T05:24:03;11.53;;;5.55;;
31872;SDS011;22407;42.820;23.374;2022-08-04T05:26:36;11.12;;;5.70;;
31872;SDS011;22407;42.820;23.374;2022-08-04T05:29:10;11.33;;;5.10;;
31872;SDS011;22407;42.820;23.374;2022-08-04T05:31:41;10.03;;;5.10;;
31872;SDS011;22407;42.820;23.374;2022-08-04T05:34:19;11.65;;;5.47;;
31872;SDS011;22407;42.820;23.374;2022-08-04T05:36:52;10.58;;;5.17;;
31872;SDS011;22407;42.820;23.374;2022-08-04T05:39:30;10.75;;;5.22;;
31872;SDS011;22407;42.820;23.374;2022-08-04T05:42:01;9.50;;;4.83;;
31872;SDS011;22407;42.820;23.374;2022-08-04T05:44:31;11.00;;;5.78;;
31872;SDS011;22407;42.820;23.374;2022-08-04T05:47:01;8.80;;;5.00;;
31872;SDS011;22407;42.820;23.374;2022-08-04T05:49:32;9.50;;;5.00;;
31872;SDS011;22407;42.820;23.374;2022-08-04T05:52:02;13.60;;;5.08;;
31872;SDS011;22407;42.820;23.374;2022-08-04T05:54:32;15.07;;;4.87;;
31872;SDS011;22407;42.820;23.374;2022-08-04T05:57:03;10.23;;;4.87;;
31872;SDS011;22407;42.820;23.374;2022-08-04T05:59:35;9.65;;;4.53;;
31872;SDS011;22407;42.820;23.374;2022-08-04T06:02:10;9.03;;;4.37;;
31872;SDS011;22407;42.820;23.374;2022-08-04T06:04:44;9.50;;;4.85;;
31872;SDS011;22407;42.820;23.374;2022-08-04T06:07:14;8.10;;;4.00;;
31872;SDS011;22407;42.820;23.374;2022-08-04T06:09:44;8.15;;;4.28;;
31872;SDS011;22407;42.820;23.374;2022-08-04T06:12:14;9.83;;;4.30;;
31872;SDS011;22407;42.820;23.374;2022-08-04T06:14:46;9.63;;;4.33;;
31872;SDS011;22407;42.820;23.374;2022-08-04T06:17:23;9.50;;;4.20;;
31872;SDS011;22407;42.820;23.374;2022-08-04T06:19:53;8.60;;;4.30;;
31872;SDS011;22407;42.820;23.374;2022-08-04T06:22:23;9.53;;;4.62;;
31872;SDS011;22407;42.820;23.374;2022-08-04T06:24:54;10.68;;;5.22;;
31872;SDS011;22407;42.820;23.374;2022-08-04T06:27:26;10.93;;;4.90;;
31872;SDS011;22407;42.820;23.374;2022-08-04T06:29:57;8.63;;;4.85;;
31872;SDS011;22407;42.820;23.374;2022-08-04T06:32:28;10.23;;;4.90;;
31872;SDS011;22407;42.820;23.374;2022-08-04T06:35:00;9.35;;;5.30;;
31872;SDS011;22407;42.820;23.374;2022-08-04T06:37:31;12.07;;;5.30;;
31872;SDS011;22407;42.820;23.374;2022-08-04T06:40:02;10.82;;;5.10;;
31872;SDS011;22407;42.820;23.374;2022-08-04T06:42:31;20.37;;;5.92;;
31872;SDS011;22407;42.820;23.374;2022-08-04T06:45:01;11.77;;;4.77;;
31872;SDS011;22407;42.820;23.374;2022-08-04T06:47:32;8.63;;;4.67;;
31872;SDS011;22407;42.820;23.374;2022-08-04T06:50:03;9.53;;;4.70;;
31872;SDS011;22407;42.820;23.374;2022-08-04T06:52:33;8.33;;;4.37;;
31872;SDS011;22407;42.820;23.374;2022-08-04T06:55:02;10.25;;;4.92;;
31872;SDS011;22407;42.820;23.374;2022-08-04T06:57:33;11.27;;;5.47;;
31872;SDS011;22407;42.820;23.374;2022-08-04T07:00:05;9.58;;;4.97;;
31872;SDS011;22407;42.820;23.374;2022-08-04T07:02:43;8.98;;;4.58;;
31872;SDS011;22407;42.820;23.374;2022-08-04T07:05:14;8.58;;;4.75;;
31872;SDS011;22407;42.820;23.374;2022-08-04T07:07:44;12.10;;;4.70;;
31872;SDS011;22407;42.820;23.374;2022-08-04T07:10:14;9.23;;;5.10;;
31872;SDS011;22407;42.820;23.374;2022-08-04T07:12:45;8.75;;;4.97;;
31872;SDS011;22407;42.820;23.374;2022-08-04T07:15:14;9.13;;;5.10;;
31872;SDS011;22407;42.820;23.374;2022-08-04T07:17:47;9.58;;;5.37;;
31872;SDS011;22407;42.820;23.374;2022-08-04T07:20:18;8.85;;;4.78;;
31872;SDS011;22407;42.820;23.374;2022-08-04T07:22:47;9.53;;;4.80;;
31872;SDS011;22407;42.820;23.374;2022-08-04T07:25:17;10.08;;;5.67;;
31872;SDS011;22407;42.820;23.374;2022-08-04T07:27:47;8.75;;;5.37;;
31872;SDS011;22407;42.820;23.374;2022-08-04T07:30:16;9.88;;;5.15;;
31872;SDS011;22407;42.820;23.374;2022-08-04T07:32:45;8.80;;;5.60;;
31872;SDS011;22407;42.820;23.374;2022-08-04T07:35:14;9.10;;;5.13;;
31872;SDS011;22407;42.820;23.374;2022-08-04T07:37:44;8.80;;;5.25;;
31872;SDS011;22407;42.820;23.374;2022-08-04T07:40:13;10.30;;;5.67;;
31872;SDS011;22407;42.820;23.374;2022-08-04T07:42:42;15.05;;;5.80;;
31872;SDS011;22407;42.820;23.374;2022-08-04T07:45:12;10.58;;;5.70;;
31872;SDS011;22407;42.820;23.374;2022-08-04T07:47:42;10.60;;;5.40;;
31872;SDS011;22407;42.820;23.374;2022-08-04T07:50:11;9.43;;;5.22;;
31872;SDS011;22407;42.820;23.374;2022-08-04T07:52:41;10.38;;;5.20;;
31872;SDS011;22407;42.820;23.374;2022-08-04T07:55:11;8.38;;;5.00;;
31872;SDS011;22407;42.820;23.374;2022-08-04T07:57:40;9.13;;;5.03;;
31872;SDS011;22407;42.820;23.374;2022-08-04T08:00:10;9.47;;;4.93;;
31872;SDS011;22407;42.820;23.374;2022-08-04T08:02:41;8.78;;;4.75;;
31872;SDS011;22407;42.820;23.374;2022-08-04T08:05:12;8.73;;;4.47;;
31872;SDS011;22407;42.820;23.374;2022-08-04T08:07:50;8.58;;;4.62;;
31872;SDS011;22407;42.820;23.374;2022-08-04T08:10:19;12.58;;;4.53;;
31872;SDS011;22407;42.820;23.374;2022-08-04T08:12:48;8.70;;;4.80;;
31872;SDS011;22407;42.820;23.374;2022-08-04T08:15:19;9.20;;;4.20;;
31872;SDS011;22407;42.820;23.374;2022-08-04T08:17:48;8.98;;;4.30;;
31872;SDS011;22407;42.820;23.374;2022-08-04T08:20:17;7.95;;;4.00;;
31872;SDS011;22407;42.820;23.374;2022-08-04T08:22:47;7.50;;;3.87;;
31872;SDS011;22407;42.820;23.374;2022-08-04T08:25:16;8.70;;;4.53;;
31872;SDS011;22407;42.820;23.374;2022-08-04T08:27:45;7.40;;;4.17;;
31872;SDS011;22407;42.820;23.374;2022-08-04T08:30:14;6.62;;;3.65;;
31872;SDS011;22407;42.820;23.374;2022-08-04T08:32:43;7.85;;;3.70;;
31872;SDS011;22407;42.820;23.374;2022-08-04T08:35:12;7.40;;;3.90;;
31872;SDS011;22407;42.820;23.374;2022-08-04T08:37:49;8.00;;;4.07;;
31872;SDS011;22407;42.820;23.374;2022-08-04T08:46:14;7.55;;;4.00;;
31872;SDS011;22407;42.820;23.374;2022-08-04T08:49:08;7.65;;;3.95;;
31872;SDS011;22407;42.820;23.374;2022-08-04T08:57:23;7.28;;;3.80;;
31872;SDS011;22407;42.820;23.374;2022-08-04T09:00:07;7.70;;;3.47;;
31872;SDS011;22407;42.820;23.374;2022-08-04T09:03:05;8.18;;;4.33;;
31872;SDS011;22407;42.820;23.374;2022-08-04T09:05:54;7.23;;;3.60;;
31872;SDS011;22407;42.820;23.374;2022-08-04T09:08:39;7.47;;;3.72;;
31872;SDS011;22407;42.820;23.374;2022-08-04T09:11:19;7.17;;;3.70;;
31872;SDS011;22407;42.820;23.374;2022-08-04T09:13:53;8.05;;;4.20;;
31872;SDS011;22407;42.820;23.374;2022-08-04T09:16:48;6.92;;;4.00;;
31872;SDS011;22407;42.820;23.374;2022-08-04T09:19:33;7.83;;;4.03;;
31872;SDS011;22407;42.820;23.374;2022-08-04T09:22:17;9.33;;;4.33;;
31872;SDS011;22407;42.820;23.374;2022-08-04T09:25:06;7.28;;;3.67;;
31872;SDS011;22407;42.820;23.374;2022-08-04T09:27:45;7.55;;;4.20;;
31872;SDS011;22407;42.820;23.374;2022-08-04T09:30:31;11.03;;;5.15;;
31872;SDS011;22407;42.820;23.374;2022-08-04T09:35:40;7.72;;;4.10;;
31872;SDS011;22407;42.820;23.374;2022-08-04T09:44:15;6.95;;;3.80;;
31872;SDS011;22407;42.820;23.374;2022-08-04T09:49:59;9.90;;;4.37;;
31872;SDS011;22407;42.820;23.374;2022-08-04T09:52:33;8.55;;;4.03;;
31872;SDS011;22407;42.820;23.374;2022-08-04T09:55:23;6.97;;;4.10;;
31872;SDS011;22407;42.820;23.374;2022-08-04T10:00:55;7.53;;;4.03;;
31872;SDS011;22407;42.820;23.374;2022-08-04T10:03:35;10.63;;;4.20;;
31872;SDS011;22407;42.820;23.374;2022-08-04T10:06:13;10.58;;;4.10;;
31872;SDS011;22407;42.820;23.374;2022-08-04T10:08:59;8.33;;;4.08;;
31872;SDS011;22407;42.820;23.374;2022-08-04T10:11:29;8.33;;;3.90;;
31872;SDS011;22407;42.820;23.374;2022-08-04T10:14:00;6.97;;;3.70;;
31872;SDS011;22407;42.820;23.374;2022-08-04T10:17:00;7.90;;;3.77;;
31872;SDS011;22407;42.820;23.374;2022-08-04T10:19:37;7.37;;;3.80;;
31872;SDS011;22407;42.820;23.374;2022-08-04T10:22:19;6.53;;;3.52;;
31872;SDS011;22407;42.820;23.374;2022-08-04T10:25:02;6.53;;;3.58;;
31872;SDS011;22407;42.820;23.374;2022-08-04T10:30:16;6.53;;;3.40;;
31872;SDS011;22407;42.820;23.374;2022-08-04T10:32:57;7.28;;;3.42;;
31872;SDS011;22407;42.820;23.374;2022-08-04T10:35:22;6.72;;;3.42;;
31872;SDS011;22407;42.820;23.374;2022-08-04T10:40:43;7.03;;;3.53;;
31872;SDS011;22407;42.820;23.374;2022-08-04T10:43:49;6.50;;;3.40;;
31872;SDS011;22407;42.820;23.374;2022-08-04T10:46:30;7.83;;;3.70;;
31872;SDS011;22407;42.820;23.374;2022-08-04T10:49:08;8.80;;;3.60;;
31872;SDS011;22407;42.820;23.374;2022-08-04T10:51:43;6.42;;;3.50;;
31872;SDS011;22407;42.820;23.374;2022-08-04T10:54:18;8.07;;;3.40;;
31872;SDS011;22407;42.820;23.374;2022-08-04T10:56:48;6.22;;;3.30;;
31872;SDS011;22407;42.820;23.374;2022-08-04T10:59:27;6.70;;;3.27;;
31872;SDS011;22407;42.820;23.374;2022-08-04T11:01:58;6.67;;;3.22;;
31872;SDS011;22407;42.820;23.374;2022-08-04T11:04:36;6.37;;;3.15;;
31872;SDS011;22407;42.820;23.374;2022-08-04T11:07:04;6.93;;;3.43;;
31872;SDS011;22407;42.820;23.374;2022-08-04T11:09:34;10.25;;;3.62;;
31872;SDS011;22407;42.820;23.374;2022-08-04T11:12:13;6.95;;;3.47;;
31872;SDS011;22407;42.820;23.374;2022-08-04T11:17:25;6.62;;;3.10;;
31872;SDS011;22407;42.820;23.374;2022-08-04T11:20:00;7.77;;;3.47;;
31872;SDS011;22407;42.820;23.374;2022-08-04T11:22:30;6.70;;;3.05;;
31872;SDS011;22407;42.820;23.374;2022-08-04T11:25:07;6.20;;;3.00;;
31872;SDS011;22407;42.820;23.374;2022-08-04T11:27:45;7.45;;;2.90;;
31872;SDS011;22407;42.820;23.374;2022-08-04T11:30:17;6.17;;;2.92;;
31872;SDS011;22407;42.820;23.374;2022-08-04T11:35:36;5.78;;;2.92;;
31872;SDS011;22407;42.820;23.374;2022-08-04T11:38:30;5.95;;;3.05;;
31872;SDS011;22407;42.820;23.374;2022-08-04T11:41:08;6.45;;;3.20;;
31872;SDS011;22407;42.820;23.374;2022-08-04T11:46:31;7.13;;;2.73;;
31872;SDS011;22407;42.820;23.374;2022-08-04T11:49:00;6.87;;;3.08;;
31872;SDS011;22407;42.820;23.374;2022-08-04T11:51:34;6.17;;;2.90;;
31872;SDS011;22407;42.820;23.374;2022-08-04T11:54:04;5.75;;;2.70;;
31872;SDS011;22407;42.820;23.374;2022-08-04T11:56:33;6.40;;;3.20;;
31872;SDS011;22407;42.820;23.374;2022-08-04T11:59:02;6.13;;;2.90;;
31872;SDS011;22407;42.820;23.374;2022-08-04T12:01:37;5.95;;;3.00;;
31872;SDS011;22407;42.820;23.374;2022-08-04T12:07:19;7.08;;;2.98;;
31872;SDS011;22407;42.820;23.374;2022-08-04T12:09:55;6.40;;;2.90;;
31872;SDS011;22407;42.820;23.374;2022-08-04T12:12:40;7.17;;;3.00;;
31872;SDS011;22407;42.820;23.374;2022-08-04T12:15:17;6.85;;;3.02;;
31872;SDS011;22407;42.820;23.374;2022-08-04T12:17:56;10.10;;;3.50;;
31872;SDS011;22407;42.820;23.374;2022-08-04T12:20:26;9.03;;;3.00;;
31872;SDS011;22407;42.820;23.374;2022-08-04T12:22:57;7.75;;;2.85;;
31872;SDS011;22407;42.820;23.374;2022-08-04T12:25:35;7.87;;;2.83;;
31872;SDS011;22407;42.820;23.374;2022-08-04T12:28:15;6.03;;;2.80;;
31872;SDS011;22407;42.820;23.374;2022-08-04T12:30:46;10.75;;;3.52;;
31872;SDS011;22407;42.820;23.374;2022-08-04T12:33:20;7.53;;;3.17;;
31872;SDS011;22407;42.820;23.374;2022-08-04T12:36:12;6.75;;;2.80;;
31872;SDS011;22407;42.820;23.374;2022-08-04T12:38:57;6.30;;;2.80;;
31872;SDS011;22407;42.820;23.374;2022-08-04T12:41:20;8.30;;;3.02;;
31872;SDS011;22407;42.820;23.374;2022-08-04T12:43:48;6.15;;;2.98;;
31872;SDS011;22407;42.820;23.374;2022-08-04T12:46:21;6.80;;;3.27;;
31872;SDS011;22407;42.820;23.374;2022-08-04T12:48:51;6.05;;;3.27;;
31872;SDS011;22407;42.820;23.374;2022-08-04T12:51:22;9.10;;;3.10;;
31872;SDS011;22407;42.820;23.374;2022-08-04T12:53:54;7.35;;;3.00;;
31872;SDS011;22407;42.820;23.374;2022-08-04T12:56:25;5.80;;;3.20;;
31872;SDS011;22407;42.820;23.374;2022-08-04T12:58:59;6.37;;;3.02;;
31872;SDS011;22407;42.820;23.374;2022-08-04T13:01:28;7.35;;;2.92;;
31872;SDS011;22407;42.820;23.374;2022-08-04T13:03:58;6.00;;;3.17;;
31872;SDS011;22407;42.820;23.374;2022-08-04T13:06:33;6.50;;;3.05;;
31872;SDS011;22407;42.820;23.374;2022-08-04T13:09:07;5.90;;;3.10;;
31872;SDS011;22407;42.820;23.374;2022-08-04T13:11:42;6.30;;;3.00;;
31872;SDS011;22407;42.820;23.374;2022-08-04T13:14:13;7.70;;;3.30;;
31872;SDS011;22407;42.820;23.374;2022-08-04T13:16:43;7.93;;;3.10;;
31872;SDS011;22407;42.820;23.374;2022-08-04T13:19:11;5.90;;;3.10;;
31872;SDS011;22407;42.820;23.374;2022-08-04T13:21:42;6.78;;;3.30;;
31872;SDS011;22407;42.820;23.374;2022-08-04T13:24:14;6.10;;;3.12;;
31872;SDS011;22407;42.820;23.374;2022-08-04T13:29:23;7.23;;;3.70;;
31872;SDS011;22407;42.820;23.374;2022-08-04T13:31:53;9.78;;;3.40;;
31872;SDS011;22407;42.820;23.374;2022-08-04T13:34:23;6.72;;;3.58;;
31872;SDS011;22407;42.820;23.374;2022-08-04T13:36:53;6.47;;;3.45;;
31872;SDS011;22407;42.820;23.374;2022-08-04T13:39:22;7.75;;;3.12;;
31872;SDS011;22407;42.820;23.374;2022-08-04T13:41:53;6.10;;;3.10;;
31872;SDS011;22407;42.820;23.374;2022-08-04T13:44:26;6.50;;;2.95;;
31872;SDS011;22407;42.820;23.374;2022-08-04T13:47:04;6.00;;;3.05;;
31872;SDS011;22407;42.820;23.374;2022-08-04T13:49:33;5.90;;;3.10;;
31872;SDS011;22407;42.820;23.374;2022-08-04T13:52:04;6.33;;;3.33;;
31872;SDS011;22407;42.820;23.374;2022-08-04T13:54:37;7.63;;;3.37;;
31872;SDS011;22407;42.820;23.374;2022-08-04T13:57:13;7.58;;;3.05;;
31872;SDS011;22407;42.820;23.374;2022-08-04T13:59:44;6.30;;;3.30;;
31872;SDS011;22407;42.820;23.374;2022-08-04T14:02:28;7.85;;;3.10;;
31872;SDS011;22407;42.820;23.374;2022-08-04T14:05:00;6.78;;;2.72;;
31872;SDS011;22407;42.820;23.374;2022-08-04T14:07:30;6.90;;;2.90;;
31872;SDS011;22407;42.820;23.374;2022-08-04T14:10:08;5.47;;;2.70;;
31872;SDS011;22407;42.820;23.374;2022-08-04T14:12:45;6.65;;;2.72;;
31872;SDS011;22407;42.820;23.374;2022-08-04T14:18:16;7.12;;;3.17;;
31872;SDS011;22407;42.820;23.374;2022-08-04T14:21:03;8.40;;;3.20;;
31872;SDS011;22407;42.820;23.374;2022-08-04T14:26:32;5.78;;;2.87;;
31872;SDS011;22407;42.820;23.374;2022-08-04T14:29:11;6.08;;;3.08;;
31872;SDS011;22407;42.820;23.374;2022-08-04T14:31:40;6.12;;;2.85;;
31872;SDS011;22407;42.820;23.374;2022-08-04T14:34:10;6.67;;;2.83;;
31872;SDS011;22407;42.820;23.374;2022-08-04T14:36:42;8.58;;;2.98;;
31872;SDS011;22407;42.820;23.374;2022-08-04T14:39:11;8.05;;;3.00;;
31872;SDS011;22407;42.820;23.374;2022-08-04T14:41:44;6.12;;;3.00;;
31872;SDS011;22407;42.820;23.374;2022-08-04T14:44:14;6.70;;;3.30;;
31872;SDS011;22407;42.820;23.374;2022-08-04T14:46:55;7.47;;;3.10;;
31872;SDS011;22407;42.820;23.374;2022-08-04T14:49:25;7.55;;;3.27;;
31872;SDS011;22407;42.820;23.374;2022-08-04T14:51:55;6.22;;;3.25;;
31872;SDS011;22407;42.820;23.374;2022-08-04T14:54:33;8.18;;;3.30;;
31872;SDS011;22407;42.820;23.374;2022-08-04T14:57:03;7.78;;;3.33;;
31872;SDS011;22407;42.820;23.374;2022-08-04T14:59:44;7.37;;;3.43;;
31872;SDS011;22407;42.820;23.374;2022-08-04T15:02:15;8.38;;;3.50;;
31872;SDS011;22407;42.820;23.374;2022-08-04T15:04:44;6.72;;;3.20;;
31872;SDS011;22407;42.820;23.374;2022-08-04T15:07:14;9.10;;;3.35;;
31872;SDS011;22407;42.820;23.374;2022-08-04T15:09:44;10.35;;;3.30;;
31872;SDS011;22407;42.820;23.374;2022-08-04T15:12:14;6.60;;;3.20;;
31872;SDS011;22407;42.820;23.374;2022-08-04T15:14:43;6.78;;;3.10;;
31872;SDS011;22407;42.820;23.374;2022-08-04T15:17:12;8.68;;;3.40;;
31872;SDS011;22407;42.820;23.374;2022-08-04T15:19:41;9.58;;;3.27;;
31872;SDS011;22407;42.820;23.374;2022-08-04T15:22:11;7.05;;;3.25;;
31872;SDS011;22407;42.820;23.374;2022-08-04T15:24:40;6.30;;;3.10;;
31872;SDS011;22407;42.820;23.374;2022-08-04T15:27:09;8.55;;;3.40;;
31872;SDS011;22407;42.820;23.374;2022-08-04T15:29:40;7.72;;;3.05;;
31872;SDS011;22407;42.820;23.374;2022-08-04T15:32:14;7.25;;;3.08;;
31872;SDS011;22407;42.820;23.374;2022-08-04T15:34:47;6.42;;;3.05;;
31872;SDS011;22407;42.820;23.374;2022-08-04T15:37:24;7.87;;;2.87;;
31872;SDS011;22407;42.820;23.374;2022-08-04T15:39:57;6.65;;;2.80;;
31872;SDS011;22407;42.820;23.374;2022-08-04T15:42:46;7.75;;;3.15;;
31872;SDS011;22407;42.820;23.374;2022-08-04T15:45:18;8.38;;;3.40;;
31872;SDS011;22407;42.820;23.374;2022-08-04T15:48:38;6.90;;;3.30;;
31872;SDS011;22407;42.820;23.374;2022-08-04T15:50:29;8.10;;;3.20;;
31872;SDS011;22407;42.820;23.374;2022-08-04T15:52:59;7.65;;;2.95;;
31872;SDS011;22407;42.820;23.374;2022-08-04T15:55:33;8.23;;;3.15;;
31872;SDS011;22407;42.820;23.374;2022-08-04T15:58:04;6.78;;;2.80;;
31872;SDS011;22407;42.820;23.374;2022-08-04T16:21:52;6.17;;;2.80;;
31872;SDS011;22407;42.820;23.374;2022-08-04T16:24:29;6.47;;;2.92;;
31872;SDS011;22407;42.820;23.374;2022-08-04T16:27:09;6.75;;;2.92;;
31872;SDS011;22407;42.820;23.374;2022-08-04T16:29:40;6.93;;;3.10;;
31872;SDS011;22407;42.820;23.374;2022-08-04T16:32:15;6.75;;;3.85;;
31872;SDS011;22407;42.820;23.374;2022-08-04T16:34:46;8.50;;;3.72;;
31872;SDS011;22407;42.820;23.374;2022-08-04T16:37:17;6.65;;;3.10;;
31872;SDS011;22407;42.820;23.374;2022-08-04T16:39:47;6.67;;;3.42;;
31872;SDS011;22407;42.820;23.374;2022-08-04T16:42:29;7.90;;;3.10;;
31872;SDS011;22407;42.820;23.374;2022-08-04T16:50:20;8.50;;;3.25;;
31872;SDS011;22407;42.820;23.374;2022-08-04T16:52:52;6.92;;;3.45;;
31872;SDS011;22407;42.820;23.374;2022-08-04T16:55:28;50.27;;;14.57;;
31872;SDS011;22407;42.820;23.374;2022-08-04T16:57:54;190.03;;;40.40;;
31872;SDS011;22407;42.820;23.374;2022-08-04T17:00:33;490.00;;;186.40;;
31872;SDS011;22407;42.820;23.374;2022-08-04T17:03:03;1203.60;;;492.07;;
31872;SDS011;22407;42.820;23.374;2022-08-04T17:05:34;526.52;;;314.93;;
31872;SDS011;22407;42.820;23.374;2022-08-04T17:08:04;18.47;;;10.40;;
31872;SDS011;22407;42.820;23.374;2022-08-04T17:10:38;8.20;;;4.00;;
31872;SDS011;22407;42.820;23.374;2022-08-04T17:13:27;6.55;;;3.50;;
31872;SDS011;22407;42.820;23.374;2022-08-04T17:16:04;7.78;;;3.98;;
31872;SDS011;22407;42.820;23.374;2022-08-04T17:18:34;6.80;;;3.55;;
31872;SDS011;22407;42.820;23.374;2022-08-04T17:21:17;9.20;;;3.83;;
31872;SDS011;22407;42.820;23.374;2022-08-04T17:23:43;8.05;;;3.65;;
31872;SDS011;22407;42.820;23.374;2022-08-04T17:26:16;6.70;;;3.47;;
31872;SDS011;22407;42.820;23.374;2022-08-04T17:28:49;8.48;;;3.60;;
31872;SDS011;22407;42.820;23.374;2022-08-04T17:31:21;8.05;;;3.72;;
31872;SDS011;22407;42.820;23.374;2022-08-04T17:33:52;8.17;;;3.80;;
31872;SDS011;22407;42.820;23.374;2022-08-04T17:36:24;9.53;;;4.00;;
31872;SDS011;22407;42.820;23.374;2022-08-04T17:38:58;7.92;;;3.92;;
31872;SDS011;22407;42.820;23.374;2022-08-04T17:41:30;10.43;;;4.03;;
31872;SDS011;22407;42.820;23.374;2022-08-04T17:44:01;8.85;;;3.70;;
31872;SDS011;22407;42.820;23.374;2022-08-04T17:46:43;8.50;;;3.50;;
31872;SDS011;22407;42.820;23.374;2022-08-04T17:59:52;9.10;;;4.10;;
31872;SDS011;22407;42.820;23.374;2022-08-04T18:02:23;8.25;;;3.77;;
31872;SDS011;22407;42.820;23.374;2022-08-04T18:04:53;7.28;;;3.98;;
31872;SDS011;22407;42.820;23.374;2022-08-04T18:07:32;7.70;;;3.60;;
31872;SDS011;22407;42.820;23.374;2022-08-04T18:10:04;7.12;;;4.00;;
31872;SDS011;22407;42.820;23.374;2022-08-04T18:12:33;7.70;;;3.50;;
31872;SDS011;22407;42.820;23.374;2022-08-04T18:15:20;7.65;;;3.80;;
31872;SDS011;22407;42.820;23.374;2022-08-04T18:17:51;9.63;;;3.70;;
31872;SDS011;22407;42.820;23.374;2022-08-04T18:20:23;11.08;;;4.03;;
31872;SDS011;22407;42.820;23.374;2022-08-04T18:22:53;9.03;;;4.03;;
31872;SDS011;22407;42.820;23.374;2022-08-04T18:25:22;8.33;;;4.40;;
31872;SDS011;22407;42.820;23.374;2022-08-04T18:27:52;9.75;;;4.00;;
31872;SDS011;22407;42.820;23.374;2022-08-04T18:30:23;8.90;;;3.90;;
31872;SDS011;22407;42.820;23.374;2022-08-04T18:32:55;11.85;;;4.25;;
31872;SDS011;22407;42.820;23.374;2022-08-04T18:35:23;8.93;;;3.98;;